Fish Lake Valley, Nevada Weather observations

Data are for 10 minute period ending at time listed.
 Day   Time    Ave.   Ave.  Ave.  Vector   Max.   Stn.    Total    Solar   Ave.  
  of    of     Air    Rel.  Wind   Wind    Wind   Baro.  Precip.   Rad.    Soil  
Year   Day     Temp.  Hum.  Speed  Dir.    Gust   Pres.                    Temp. 
2017   (PST)    F      %     mph   deg.    mph     mb.     in.     W/m2     F    
--------------------------------------------------------------------------------- 
 118    0:00   43.8    28   10.5   285     20.4   849.6    0.00       2    59.3  
 118    0:10   43.7    28   10.5   284     17.1   849.6    0.00       2    59.3  
 118    0:20   43.4    29   10.7   290     14.4   849.7    0.00       2    59.2  
 118    0:30   43.0    30   11.1   285     15.0   849.8    0.00       2    59.2  
 118    0:40   42.6    30   11.1   281     14.2   849.7    0.00       2    59.2  
 118    0:50   42.0    31   10.4   279     13.1   849.7    0.00       2    59.1  
 118    1:00   41.7    32   10.8   279     13.6   849.8    0.00       2    59.1  
 118    1:10   41.7    32   11.2   278     14.1   849.7    0.00       2    59.1  
 118    1:20   41.5    33   10.2   282     13.3   849.7    0.00       2    59.1  
 118    1:30   41.3    33   10.4   279     15.5   849.6    0.00       2    59.0  
 118    1:40   41.2    34   10.9   281     17.8   849.6    0.00       2    59.0  
 118    1:50   40.6    35    9.7   280     11.8   849.6    0.00       2    59.0  
 118    2:00   40.1    36    9.6   276     12.1   849.6    0.00       2    58.9  
 118    2:10   40.4    36   10.1   280     13.6   849.7    0.00       2    58.9  
 118    2:20   40.5    36   10.2   282     13.6   849.8    0.00       2    58.8  
 118    2:30   40.4    36   10.8   283     13.3   849.7    0.00       2    58.8  
 118    2:40   40.2    36   10.8   288     14.3   849.7    0.00       2    58.8  
 118    2:50   40.3    36   11.0   286     14.1   849.7    0.00       2    58.7  
 118    3:00   40.2    36   11.2   291     15.6   849.7    0.00       2    58.7  
 118    3:10   39.9    36   10.3   290     13.2   849.8    0.00       2    58.7  
 118    3:20   39.7    37   10.2   284     14.2   849.7    0.00       2    58.6  
 118    3:30   39.4    38   10.8   286     14.8   849.9    0.00       2    58.6  
 118    3:40   39.2    38   10.5   282     13.5   850.0    0.00       2    58.5  
 118    3:50   38.4    40   10.0   278     12.2   850.0    0.00       2    58.5  
 118    4:00   38.2    40   10.5   280     13.3   850.1    0.00       2    58.4  
 118    4:10   38.4    40   10.8   279     13.7   850.1    0.00       2    58.4  
 118    4:20   38.6    40   10.8   282     13.7   850.0    0.00       2    58.4  
 118    4:30   38.4    40   10.3   279     12.8   850.0    0.00       2    58.3  
 118    4:40   38.3    41   10.1   278     12.9   850.2    0.00       2    58.3  
 118    4:50   38.2    41   10.1   282     13.1   850.3    0.00       3    58.2  
 118    5:00   37.8    42   10.2   288     13.2   850.4    0.00       5    58.2  
 118    5:10   37.3    44   10.6   286     13.1   850.4    0.00       9    58.1  
 118    5:20   37.4    44   11.6   286     15.8   850.4    0.00      14    58.1  
 118    5:30   38.0    43   11.7   294     14.5   850.7    0.00      24    58.0  
 118    5:40   38.7    42   12.1   290     16.3   850.7    0.00      72    58.0  
 118    5:50   39.4    42   12.8   290     16.6   850.8    0.00      84    57.9  
 118    6:00   40.1    41   13.2   294     16.9   850.9    0.00     166    57.9  
 118    6:10   40.7    40   13.5   295     17.8   851.0    0.00     205    57.8  
 118    6:20   41.3    39   14.6   296     21.5   851.0    0.00     241    57.8  
 118    6:30   41.8    38   14.2   299     22.2   851.1    0.00     276    57.7  
 118    6:40   41.9    38   13.7   297     18.5   851.2    0.00     312    57.7  
 118    6:50   42.3    38   15.6   290     21.5   851.2    0.00     351    57.7  
 118    7:00   42.7    38   15.5   294     20.9   851.2    0.00     390    57.6  
 118    7:10   43.8    37   13.3   310     18.0   851.4    0.00     428    57.6  
 118    7:20   44.5    36   14.0   319     22.3   851.4    0.00     466    57.5  
 118    7:30   45.0    36   13.9   336     20.4   851.4    0.00     507    57.5  
 118    7:40   45.1    36   14.2   347     20.4   851.4    0.00     547    57.4  
 118    7:50   45.5    35   13.9   341     21.7   851.4    0.00     586    57.3  
 118    8:00   45.9    35   14.6   343     22.9   851.4    0.00     624    57.3  
 118    8:10   46.6    34   14.3   327     19.6   851.3    0.00     661    57.3  
 118    8:20   46.9    34   14.0   344     20.2   851.4    0.00     694    57.2  
 118    8:30   47.2    33   16.2   329     22.9   851.5    0.00     721    57.1  
 118    8:40   47.6    32   14.5   333     24.2   851.4    0.00     750    57.1  
 118    8:50   47.8    31   16.3   340     26.0   851.4    0.00     765    57.1  
 118    9:00   48.1    30   16.8   332     23.3   851.3    0.00     811    57.0  
 118    9:10   48.7    28   15.4   327     26.1   851.3    0.00     839    56.9  
 118    9:20   48.9    26   16.1   327     23.1   851.3    0.00     870    56.9  
 118    9:30   49.4    24   15.6   334     24.5   851.2    0.00     895    56.9  
 118    9:40   49.6    23   17.1   336     23.6   851.2    0.00     917    56.8  
 118    9:50   50.8    24   15.0   346     24.6   851.1    0.00     937    56.8  
 118   10:00   51.4    23   15.8   351     21.2   851.1    0.00     956    56.7  
 118   10:10   51.4    24   17.3   352     25.9   851.1    0.00     978    56.7  
 118   10:20   51.7    22   19.7   353     26.6   851.1    0.00     997    56.6  
 118   10:30   52.0    23   18.5   359     27.8   850.9    0.00    1014    56.6  
 118   10:40   52.6    21   19.5   354     27.2   851.0    0.00    1028    56.6  
 118   10:50   52.4    22   19.4   344     31.5   851.1    0.00    1037    56.5  
 118   11:00   51.9    24   17.8   348     27.1   851.0    0.00    1047    56.5  
 118   11:10   52.0    23   17.1   358     30.9   850.9    0.00    1054    56.5  
 118   11:20   52.6    23   16.5   353     25.3   850.9    0.00    1061    56.5  
 118   11:30   52.7    23   17.4   358     29.6   850.8    0.00    1066    56.4  
 118   11:40   53.3    22   17.4   349     27.0   850.7    0.00    1068    56.4  
 118   11:50   52.9    22   19.1     4     28.5   850.7    0.00    1070    56.4  
 118   12:00   53.2    21   17.0   358     27.2   850.7    0.00    1072    56.4  
 118   12:10   54.2    20   21.5   358     31.3   850.7    0.00    1068    56.4  
 118   12:20   54.6    20   18.7   359     33.9   850.6    0.00    1069    56.4  
 118   12:30   54.5    20   19.7   359     29.2   850.6    0.00    1064    56.3  
 118   12:40   54.2    20   21.9     1     32.1   850.8    0.00    1056    56.3  
 118   12:50   54.3    20   20.8     9     29.4   850.7    0.00    1044    56.3  
 118   13:00   54.4    20   22.7   353     33.6   850.9    0.00    1029    56.3  
 118   13:10   53.7    20   24.9     2     35.1   851.1    0.00    1019    56.3  
 118   13:20   54.0    21   23.6     3     35.8   851.1    0.00    1005    56.3  
 118   13:30   53.8    21   24.3   360     34.5   851.1    0.00     987    56.3  
 118   13:40   53.4    22   23.9   359     34.8   851.2    0.00     975    56.4  
 118   13:50   53.7    21   23.4   353     36.9   851.2    0.00     963    56.4  
 118   14:00   53.3    20   24.7     3     40.7   851.2    0.00     850    56.4  
 118   14:10   53.7    19   23.4   357     36.0   851.3    0.00     918    56.4  
 118   14:20   53.7    19   22.6   353     37.1   851.4    0.00     873    56.4  
 118   14:30   53.8    19   23.0   355     36.4   851.4    0.00     830    56.4  
 118   14:40   53.7    18   25.4   347     38.8   851.5    0.00     824    56.5  
 118   14:50   53.5    18   22.9   341     34.3   851.5    0.00     773    56.5  
 118   15:00   53.5    19   21.6   346     30.6   851.6    0.00     739    56.5  
 118   15:10   53.3    18   22.3   340     32.9   851.6    0.00     735    56.6  
 118   15:20   52.9    18   23.4   329     34.5   851.7    0.00     705    56.6  
 118   15:30   53.0    18   19.4   327     26.9   851.6    0.00     682    56.6  
 118   15:40   53.1    17   21.0   332     30.7   851.6    0.00     645    56.7  
 118   15:50   52.9    17   16.1   341     29.1   851.6    0.00     614    56.7  
 118   16:00   53.1    17   16.7   341     25.2   851.6    0.00     578    56.7  
 118   16:10   53.1    17   18.3   349     29.3   851.7    0.00     538    56.8  
 118   16:20   52.3    17   17.8   353     31.0   851.7    0.00     499    56.8  
 118   16:30   51.9    18   17.8   349     29.8   851.8    0.00     467    56.9  
 118   16:40   52.1    17   17.0   346     25.3   851.8    0.00     431    56.9  
 118   16:50   52.2    17   16.1   345     36.4   851.9    0.00     397    56.9  
 118   17:00   51.8    17   16.5   351     26.9   852.0    0.00     361    57.0  
 118   17:10   51.4    18   15.8   331     26.3   852.1    0.00     324    57.0  
 118   17:20   51.1    19   15.2   331     25.2   852.1    0.00     288    57.1  
 118   17:30   50.7    19   17.2   329     25.9   852.2    0.00     254    57.1  
 118   17:40   50.5    18   16.3   341     25.7   852.3    0.00     218    57.1  
 118   17:50   49.9    19   17.4   324     24.1   852.4    0.00     187    57.2  
 118   18:00   49.5    19   17.1   330     25.2   852.6    0.00     153    57.2  
 118   18:10   48.7    20   16.0   334     23.1   852.7    0.00      81    57.3  
 118   18:20   47.7    21   14.9   337     20.7   852.8    0.00      21    57.3  
 118   18:30   47.1    22   16.6   334     23.5   852.9    0.00      15    57.3  
 118   18:40   46.9    23   16.6   333     23.5   853.1    0.00      11    57.4  
 118   18:50   46.2    24   14.9   327     22.2   853.2    0.00       6    57.4  
 118   19:00   46.1    23   15.7   324     22.6   853.3    0.00       3    57.4  
 118   19:10   45.1    25   13.3   328     19.9   853.5    0.00       3    57.5  
 118   19:20   44.8    26   13.6   327     19.9   853.7    0.00       2    57.5  
 118   19:30   44.5    26   14.4   328     21.8   853.9    0.00       2    57.5  
 118   19:40   44.2    26   13.8   331     20.7   854.2    0.00       2    57.6  
 118   19:50   43.5    27   12.6   323     17.7   854.3    0.00       2    57.6  
 118   20:00   43.0    27   12.4   321     18.0   854.4    0.00       2    57.6  
 118   20:10   42.5    28   13.1   319     17.4   854.5    0.00       2    57.7  
 118   20:20   41.9    28   12.7   319     16.1   854.6    0.00       2    57.7  
 118   20:30   41.6    28   13.5   320     18.1   854.6    0.00       2    57.7  
 118   20:40   41.7    28   12.8   328     17.1   855.0    0.00       2    57.7  
 118   20:50   41.4    28   13.5   326     19.0   855.2    0.00       2    57.7  
 118   21:00   40.6    30   11.1   324     17.5   855.4    0.00       2    57.7  
 118   21:10   40.1    32   10.3   325     14.0   855.5    0.00       2    57.7  
 118   21:20   40.3    31    9.9   327     14.4   855.6    0.00       2    57.7  
 118   21:30   40.2    31   10.6   327     13.5   855.8    0.00       2    57.7  
 118   21:40   40.4    32    9.3   321     13.2   855.8    0.00       2    57.8  
 118   21:50   40.5    32    9.8   318     13.3   855.9    0.00       2    57.8  
 118   22:00   40.1    32   11.6   315     16.5   855.9    0.00       2    57.7  
 118   22:10   40.3    32   11.9   313     17.2   855.9    0.00       2    57.7  
 118   22:20   39.8    33   11.1   312     15.5   856.1    0.00       2    57.7  
 118   22:30   39.1    35    9.5   313     13.6   856.3    0.00       2    57.7  
 118   22:40   38.9    36    9.2   314     12.8   856.4    0.00       2    57.7  
 118   22:50   39.4    36    9.5   310     13.0   856.4    0.00       2    57.7  
 118   23:00   39.0    36    8.6   295     11.2   856.5    0.00       2    57.7  
 118   23:10   38.0    38    9.5   286     12.6   856.6    0.00       2    57.7  
 118   23:20   37.7    39    8.6   293     12.5   856.8    0.00       2    57.7  
 118   23:30   37.7    39    7.5   315     11.7   857.0    0.00       2    57.6  
 118   23:40   36.8    41    7.4   327      9.3   857.0    0.00       2    57.6  

Return to Fish Lake Valley, Nevada graphs page.


Western Regional Climate Center,wrcc@dri.edu